sensor_id;sensor_type;location;lat;lon;timestamp;temperature;humidity
5017;DHT22;2527;50.892;16.706;2024-01-10T00:02:20;-4.70;99.90
5017;DHT22;2527;50.892;16.706;2024-01-10T00:04:45;-4.40;99.90
5017;DHT22;2527;50.892;16.706;2024-01-10T00:07:11;-4.70;99.90
5017;DHT22;2527;50.892;16.706;2024-01-10T00:09:37;-4.70;99.90
5017;DHT22;2527;50.892;16.706;2024-01-10T00:12:04;-4.60;99.90
5017;DHT22;2527;50.892;16.706;2024-01-10T00:14:29;-4.60;99.90
5017;DHT22;2527;50.892;16.706;2024-01-10T00:16:55;-4.60;99.90
5017;DHT22;2527;50.892;16.706;2024-01-10T00:19:21;-4.60;99.90
5017;DHT22;2527;50.892;16.706;2024-01-10T00:21:46;-4.50;99.90
5017;DHT22;2527;50.892;16.706;2024-01-10T00:24:12;-4.50;99.90
5017;DHT22;2527;50.892;16.706;2024-01-10T00:26:38;-4.50;99.90
5017;DHT22;2527;50.892;16.706;2024-01-10T00:29:03;-4.50;99.90
5017;DHT22;2527;50.892;16.706;2024-01-10T00:31:29;-4.60;99.90
5017;DHT22;2527;50.892;16.706;2024-01-10T00:33:55;-4.60;99.90
5017;DHT22;2527;50.892;16.706;2024-01-10T00:36:20;-2.50;99.90
5017;DHT22;2527;50.892;16.706;2024-01-10T00:38:46;-4.70;99.90
5017;DHT22;2527;50.892;16.706;2024-01-10T00:41:14;-4.70;99.90
5017;DHT22;2527;50.892;16.706;2024-01-10T00:43:40;-4.70;99.90
5017;DHT22;2527;50.892;16.706;2024-01-10T00:46:05;-4.70;99.90
5017;DHT22;2527;50.892;16.706;2024-01-10T00:48:31;-4.30;99.90
5017;DHT22;2527;50.892;16.706;2024-01-10T00:50:57;-4.40;99.90
5017;DHT22;2527;50.892;16.706;2024-01-10T00:53:22;-4.80;99.90
5017;DHT22;2527;50.892;16.706;2024-01-10T00:55:49;-4.80;99.90
5017;DHT22;2527;50.892;16.706;2024-01-10T00:58:14;-4.80;99.90
5017;DHT22;2527;50.892;16.706;2024-01-10T01:00:40;-4.80;99.90
5017;DHT22;2527;50.892;16.706;2024-01-10T01:03:06;-4.80;99.90
5017;DHT22;2527;50.892;16.706;2024-01-10T01:05:33;-4.80;99.90
5017;DHT22;2527;50.892;16.706;2024-01-10T01:07:59;-4.80;99.90
5017;DHT22;2527;50.892;16.706;2024-01-10T01:10:25;-4.80;99.90
5017;DHT22;2527;50.892;16.706;2024-01-10T01:12:50;-4.80;99.90
5017;DHT22;2527;50.892;16.706;2024-01-10T01:15:16;-4.90;99.90
5017;DHT22;2527;50.892;16.706;2024-01-10T01:17:42;-4.40;99.90
5017;DHT22;2527;50.892;16.706;2024-01-10T01:20:08;-4.90;99.90
5017;DHT22;2527;50.892;16.706;2024-01-10T01:22:34;-4.90;99.90
5017;DHT22;2527;50.892;16.706;2024-01-10T01:25:00;-4.90;99.90
5017;DHT22;2527;50.892;16.706;2024-01-10T01:27:26;-4.90;99.90
5017;DHT22;2527;50.892;16.706;2024-01-10T01:29:51;-4.90;99.90
5017;DHT22;2527;50.892;16.706;2024-01-10T01:32:17;-4.90;99.90
5017;DHT22;2527;50.892;16.706;2024-01-10T01:34:43;-4.90;99.90
5017;DHT22;2527;50.892;16.706;2024-01-10T01:37:08;-4.90;99.90
5017;DHT22;2527;50.892;16.706;2024-01-10T01:39:34;-4.90;99.90
5017;DHT22;2527;50.892;16.706;2024-01-10T01:42:01;-4.80;99.90
5017;DHT22;2527;50.892;16.706;2024-01-10T01:44:27;-4.80;99.90
5017;DHT22;2527;50.892;16.706;2024-01-10T01:46:53;-4.80;99.90
5017;DHT22;2527;50.892;16.706;2024-01-10T01:49:19;-4.80;99.90
5017;DHT22;2527;50.892;16.706;2024-01-10T01:51:45;-4.80;99.90
5017;DHT22;2527;50.892;16.706;2024-01-10T01:54:11;-4.80;99.90
5017;DHT22;2527;50.892;16.706;2024-01-10T01:56:37;-4.80;99.90
5017;DHT22;2527;50.892;16.706;2024-01-10T01:59:04;-4.80;99.90
5017;DHT22;2527;50.892;16.706;2024-01-10T02:01:30;-4.80;99.90
5017;DHT22;2527;50.892;16.706;2024-01-10T02:03:55;-4.80;99.90
5017;DHT22;2527;50.892;16.706;2024-01-10T02:06:22;-4.80;99.90
5017;DHT22;2527;50.892;16.706;2024-01-10T02:08:48;-4.80;99.90
5017;DHT22;2527;50.892;16.706;2024-01-10T02:11:14;-4.80;99.90
5017;DHT22;2527;50.892;16.706;2024-01-10T02:13:40;-4.80;99.90
5017;DHT22;2527;50.892;16.706;2024-01-10T02:16:06;-4.80;99.90
5017;DHT22;2527;50.892;16.706;2024-01-10T02:18:32;-4.80;99.90
5017;DHT22;2527;50.892;16.706;2024-01-10T02:21:00;-4.80;99.90
5017;DHT22;2527;50.892;16.706;2024-01-10T02:23:25;-4.70;99.90
5017;DHT22;2527;50.892;16.706;2024-01-10T02:25:51;-4.70;99.90
5017;DHT22;2527;50.892;16.706;2024-01-10T02:28:18;-4.70;99.90
5017;DHT22;2527;50.892;16.706;2024-01-10T02:30:44;-4.70;99.90
5017;DHT22;2527;50.892;16.706;2024-01-10T02:33:10;-4.70;99.90
5017;DHT22;2527;50.892;16.706;2024-01-10T02:35:35;-4.70;99.90
5017;DHT22;2527;50.892;16.706;2024-01-10T02:38:02;-4.70;99.90
5017;DHT22;2527;50.892;16.706;2024-01-10T02:40:28;-4.70;99.90
5017;DHT22;2527;50.892;16.706;2024-01-10T02:42:54;-4.70;99.90
5017;DHT22;2527;50.892;16.706;2024-01-10T02:45:20;-4.70;99.90
5017;DHT22;2527;50.892;16.706;2024-01-10T02:47:45;-4.70;99.90
5017;DHT22;2527;50.892;16.706;2024-01-10T02:50:11;-4.70;99.90
5017;DHT22;2527;50.892;16.706;2024-01-10T02:52:37;-4.70;99.90
5017;DHT22;2527;50.892;16.706;2024-01-10T02:55:03;-4.70;99.90
5017;DHT22;2527;50.892;16.706;2024-01-10T02:57:29;-4.60;99.90
5017;DHT22;2527;50.892;16.706;2024-01-10T02:59:55;-4.70;99.90
5017;DHT22;2527;50.892;16.706;2024-01-10T03:02:21;-4.70;99.90
5017;DHT22;2527;50.892;16.706;2024-01-10T03:04:49;-4.70;99.90
5017;DHT22;2527;50.892;16.706;2024-01-10T03:07:15;-4.70;99.90
5017;DHT22;2527;50.892;16.706;2024-01-10T03:09:40;-4.60;99.90
5017;DHT22;2527;50.892;16.706;2024-01-10T03:12:06;-4.70;99.90
5017;DHT22;2527;50.892;16.706;2024-01-10T03:14:32;-4.70;99.90
5017;DHT22;2527;50.892;16.706;2024-01-10T03:16:58;-4.70;99.90
5017;DHT22;2527;50.892;16.706;2024-01-10T03:19:24;-4.60;99.90
5017;DHT22;2527;50.892;16.706;2024-01-10T03:21:50;-4.60;99.90
5017;DHT22;2527;50.892;16.706;2024-01-10T03:24:16;-4.70;99.90
5017;DHT22;2527;50.892;16.706;2024-01-10T03:26:42;-4.70;99.90
5017;DHT22;2527;50.892;16.706;2024-01-10T03:29:08;-4.70;99.90
5017;DHT22;2527;50.892;16.706;2024-01-10T03:31:34;-4.70;99.90
5017;DHT22;2527;50.892;16.706;2024-01-10T03:34:00;-4.70;99.90
5017;DHT22;2527;50.892;16.706;2024-01-10T03:36:27;-4.70;99.90
5017;DHT22;2527;50.892;16.706;2024-01-10T03:38:52;-4.60;99.90
5017;DHT22;2527;50.892;16.706;2024-01-10T03:41:19;-4.60;99.90
5017;DHT22;2527;50.892;16.706;2024-01-10T03:43:45;-4.60;99.90
5017;DHT22;2527;50.892;16.706;2024-01-10T03:46:11;-4.70;99.90
5017;DHT22;2527;50.892;16.706;2024-01-10T03:48:37;-4.10;99.90
5017;DHT22;2527;50.892;16.706;2024-01-10T03:51:06;-4.60;99.90
5017;DHT22;2527;50.892;16.706;2024-01-10T03:53:32;-4.60;99.90
5017;DHT22;2527;50.892;16.706;2024-01-10T03:55:58;-4.60;99.90
5017;DHT22;2527;50.892;16.706;2024-01-10T03:58:23;-4.60;99.90
5017;DHT22;2527;50.892;16.706;2024-01-10T04:00:49;-4.60;99.90
5017;DHT22;2527;50.892;16.706;2024-01-10T04:03:16;-4.70;99.90
5017;DHT22;2527;50.892;16.706;2024-01-10T04:05:42;-4.70;99.90
5017;DHT22;2527;50.892;16.706;2024-01-10T04:08:07;-4.60;99.90
5017;DHT22;2527;50.892;16.706;2024-01-10T04:10:33;-4.70;99.90
5017;DHT22;2527;50.892;16.706;2024-01-10T04:13:00;-4.70;99.90
5017;DHT22;2527;50.892;16.706;2024-01-10T04:15:27;-4.70;99.90
5017;DHT22;2527;50.892;16.706;2024-01-10T04:17:53;-4.70;99.90
5017;DHT22;2527;50.892;16.706;2024-01-10T04:20:19;-4.70;99.90
5017;DHT22;2527;50.892;16.706;2024-01-10T04:22:44;-4.60;99.90
5017;DHT22;2527;50.892;16.706;2024-01-10T04:25:10;-4.70;99.90
5017;DHT22;2527;50.892;16.706;2024-01-10T04:27:36;-4.60;99.90
5017;DHT22;2527;50.892;16.706;2024-01-10T04:30:02;-4.70;99.90
5017;DHT22;2527;50.892;16.706;2024-01-10T04:32:28;-4.60;99.90
5017;DHT22;2527;50.892;16.706;2024-01-10T04:34:53;-4.70;99.90
5017;DHT22;2527;50.892;16.706;2024-01-10T04:37:19;-4.50;99.90
5017;DHT22;2527;50.892;16.706;2024-01-10T04:39:46;-4.80;99.90
5017;DHT22;2527;50.892;16.706;2024-01-10T04:42:11;-4.80;99.90
5017;DHT22;2527;50.892;16.706;2024-01-10T04:44:38;-4.80;99.90
5017;DHT22;2527;50.892;16.706;2024-01-10T04:47:04;-4.90;99.90
5017;DHT22;2527;50.892;16.706;2024-01-10T04:49:30;-4.90;99.90
5017;DHT22;2527;50.892;16.706;2024-01-10T04:51:56;-5.00;99.90
5017;DHT22;2527;50.892;16.706;2024-01-10T04:54:22;-5.00;99.90
5017;DHT22;2527;50.892;16.706;2024-01-10T04:56:48;-5.00;99.90
5017;DHT22;2527;50.892;16.706;2024-01-10T04:59:14;-5.00;99.90
5017;DHT22;2527;50.892;16.706;2024-01-10T05:01:39;-5.00;99.90
5017;DHT22;2527;50.892;16.706;2024-01-10T05:04:06;-5.00;99.90
5017;DHT22;2527;50.892;16.706;2024-01-10T05:06:31;-1.90;99.90
5017;DHT22;2527;50.892;16.706;2024-01-10T05:08:57;-5.00;99.90
5017;DHT22;2527;50.892;16.706;2024-01-10T05:11:24;-5.00;99.90
5017;DHT22;2527;50.892;16.706;2024-01-10T05:13:51;-5.00;99.90
5017;DHT22;2527;50.892;16.706;2024-01-10T05:16:16;-5.00;99.90
5017;DHT22;2527;50.892;16.706;2024-01-10T05:18:43;-5.00;99.90
5017;DHT22;2527;50.892;16.706;2024-01-10T05:21:09;-4.90;99.90
5017;DHT22;2527;50.892;16.706;2024-01-10T05:23:34;-4.90;99.90
5017;DHT22;2527;50.892;16.706;2024-01-10T05:26:01;-4.90;99.90
5017;DHT22;2527;50.892;16.706;2024-01-10T05:28:27;-4.80;99.90
5017;DHT22;2527;50.892;16.706;2024-01-10T05:30:52;-4.80;99.90
5017;DHT22;2527;50.892;16.706;2024-01-10T05:33:19;-4.80;99.90
5017;DHT22;2527;50.892;16.706;2024-01-10T05:35:45;-4.80;99.90
5017;DHT22;2527;50.892;16.706;2024-01-10T05:38:12;-4.80;99.90
5017;DHT22;2527;50.892;16.706;2024-01-10T05:40:40;-4.80;99.90
5017;DHT22;2527;50.892;16.706;2024-01-10T05:43:06;-4.80;99.90
5017;DHT22;2527;50.892;16.706;2024-01-10T05:45:32;-4.80;99.90
5017;DHT22;2527;50.892;16.706;2024-01-10T05:47:58;-4.80;99.90
5017;DHT22;2527;50.892;16.706;2024-01-10T05:50:24;-4.90;99.90
5017;DHT22;2527;50.892;16.706;2024-01-10T05:52:50;-4.90;99.90
5017;DHT22;2527;50.892;16.706;2024-01-10T05:55:16;-5.00;99.90
5017;DHT22;2527;50.892;16.706;2024-01-10T05:57:42;-5.00;99.90
5017;DHT22;2527;50.892;16.706;2024-01-10T06:00:08;-5.10;99.90
5017;DHT22;2527;50.892;16.706;2024-01-10T06:02:38;-5.10;99.90
5017;DHT22;2527;50.892;16.706;2024-01-10T06:05:07;-5.10;99.90
5017;DHT22;2527;50.892;16.706;2024-01-10T06:07:34;-5.10;99.90
5017;DHT22;2527;50.892;16.706;2024-01-10T06:10:00;-5.10;99.90
5017;DHT22;2527;50.892;16.706;2024-01-10T06:12:27;-5.10;99.90
5017;DHT22;2527;50.892;16.706;2024-01-10T06:14:53;-5.10;99.90
5017;DHT22;2527;50.892;16.706;2024-01-10T06:17:19;-5.10;99.90
5017;DHT22;2527;50.892;16.706;2024-01-10T06:19:45;-5.10;99.90
5017;DHT22;2527;50.892;16.706;2024-01-10T06:22:11;-5.10;99.90
5017;DHT22;2527;50.892;16.706;2024-01-10T06:24:39;-5.10;99.90
5017;DHT22;2527;50.892;16.706;2024-01-10T06:27:06;-5.10;99.90
5017;DHT22;2527;50.892;16.706;2024-01-10T06:29:32;-5.10;99.90
5017;DHT22;2527;50.892;16.706;2024-01-10T06:31:58;-5.10;99.90
5017;DHT22;2527;50.892;16.706;2024-01-10T06:34:24;-5.10;99.90
5017;DHT22;2527;50.892;16.706;2024-01-10T06:36:50;-5.00;99.90
5017;DHT22;2527;50.892;16.706;2024-01-10T06:39:15;-5.00;99.90
5017;DHT22;2527;50.892;16.706;2024-01-10T06:41:48;-5.00;99.90
5017;DHT22;2527;50.892;16.706;2024-01-10T06:44:14;-5.10;99.90
5017;DHT22;2527;50.892;16.706;2024-01-10T06:46:39;-5.10;99.90
5017;DHT22;2527;50.892;16.706;2024-01-10T06:49:05;-5.10;99.90
5017;DHT22;2527;50.892;16.706;2024-01-10T06:51:32;-5.10;99.90
5017;DHT22;2527;50.892;16.706;2024-01-10T06:53:58;-5.10;99.90
5017;DHT22;2527;50.892;16.706;2024-01-10T06:56:34;-5.10;99.90
5017;DHT22;2527;50.892;16.706;2024-01-10T06:59:00;-4.90;99.90
5017;DHT22;2527;50.892;16.706;2024-01-10T07:01:26;-5.10;99.90
5017;DHT22;2527;50.892;16.706;2024-01-10T07:03:53;-5.20;99.90
5017;DHT22;2527;50.892;16.706;2024-01-10T07:06:22;-5.10;99.90
5017;DHT22;2527;50.892;16.706;2024-01-10T07:08:49;-5.20;99.90
5017;DHT22;2527;50.892;16.706;2024-01-10T07:11:16;-5.20;99.90
5017;DHT22;2527;50.892;16.706;2024-01-10T07:13:42;-5.20;99.90
5017;DHT22;2527;50.892;16.706;2024-01-10T07:16:08;-5.20;99.90
5017;DHT22;2527;50.892;16.706;2024-01-10T07:18:34;-5.10;99.90
5017;DHT22;2527;50.892;16.706;2024-01-10T07:20:59;-5.10;99.90
5017;DHT22;2527;50.892;16.706;2024-01-10T07:23:25;-5.10;99.90
5017;DHT22;2527;50.892;16.706;2024-01-10T07:25:51;-5.10;99.90
5017;DHT22;2527;50.892;16.706;2024-01-10T07:28:17;-5.10;99.90
5017;DHT22;2527;50.892;16.706;2024-01-10T07:30:44;-5.10;99.90
5017;DHT22;2527;50.892;16.706;2024-01-10T07:33:10;-5.10;99.90
5017;DHT22;2527;50.892;16.706;2024-01-10T07:35:36;-5.20;99.90
5017;DHT22;2527;50.892;16.706;2024-01-10T07:38:03;-5.20;99.90
5017;DHT22;2527;50.892;16.706;2024-01-10T07:40:30;-5.20;99.90
5017;DHT22;2527;50.892;16.706;2024-01-10T07:42:57;-4.30;99.90
5017;DHT22;2527;50.892;16.706;2024-01-10T07:45:22;-5.20;99.90
5017;DHT22;2527;50.892;16.706;2024-01-10T07:47:48;-5.20;99.90
5017;DHT22;2527;50.892;16.706;2024-01-10T07:50:14;-5.20;99.90
5017;DHT22;2527;50.892;16.706;2024-01-10T07:52:39;-5.20;99.90
5017;DHT22;2527;50.892;16.706;2024-01-10T07:55:05;-5.20;99.90
5017;DHT22;2527;50.892;16.706;2024-01-10T07:57:32;-5.20;99.90
5017;DHT22;2527;50.892;16.706;2024-01-10T07:59:59;-5.20;99.90
5017;DHT22;2527;50.892;16.706;2024-01-10T08:02:25;-5.10;99.90
5017;DHT22;2527;50.892;16.706;2024-01-10T08:04:51;-5.00;99.90
5017;DHT22;2527;50.892;16.706;2024-01-10T08:07:17;-4.90;99.90
5017;DHT22;2527;50.892;16.706;2024-01-10T08:09:42;-4.80;99.90
5017;DHT22;2527;50.892;16.706;2024-01-10T08:12:09;-4.70;99.90
5017;DHT22;2527;50.892;16.706;2024-01-10T08:14:34;-4.60;99.90
5017;DHT22;2527;50.892;16.706;2024-01-10T08:17:00;-4.50;99.90
5017;DHT22;2527;50.892;16.706;2024-01-10T08:19:26;-4.40;99.90
5017;DHT22;2527;50.892;16.706;2024-01-10T08:21:52;-4.40;99.90
5017;DHT22;2527;50.892;16.706;2024-01-10T08:24:18;-4.30;99.90
5017;DHT22;2527;50.892;16.706;2024-01-10T08:26:44;-4.20;99.90
5017;DHT22;2527;50.892;16.706;2024-01-10T08:29:10;-4.10;99.90
5017;DHT22;2527;50.892;16.706;2024-01-10T08:31:35;-4.00;99.90
5017;DHT22;2527;50.892;16.706;2024-01-10T08:34:01;-3.30;99.90
5017;DHT22;2527;50.892;16.706;2024-01-10T08:36:28;-3.90;99.90
5017;DHT22;2527;50.892;16.706;2024-01-10T08:38:54;-1.50;99.90
5017;DHT22;2527;50.892;16.706;2024-01-10T08:41:19;-3.40;99.90
5017;DHT22;2527;50.892;16.706;2024-01-10T08:43:48;-3.70;99.90
5017;DHT22;2527;50.892;16.706;2024-01-10T08:46:13;-3.60;99.90
5017;DHT22;2527;50.892;16.706;2024-01-10T08:48:41;-3.60;99.90
5017;DHT22;2527;50.892;16.706;2024-01-10T08:51:07;-3.50;99.90
5017;DHT22;2527;50.892;16.706;2024-01-10T08:53:35;-3.40;99.90
5017;DHT22;2527;50.892;16.706;2024-01-10T08:56:00;-3.30;99.90
5017;DHT22;2527;50.892;16.706;2024-01-10T08:58:27;-3.30;99.90
5017;DHT22;2527;50.892;16.706;2024-01-10T09:00:53;-3.20;99.90
5017;DHT22;2527;50.892;16.706;2024-01-10T09:03:19;-3.10;99.90
5017;DHT22;2527;50.892;16.706;2024-01-10T09:05:45;-3.00;99.90
5017;DHT22;2527;50.892;16.706;2024-01-10T09:08:11;-2.90;99.90
5017;DHT22;2527;50.892;16.706;2024-01-10T09:10:37;-2.90;99.90
5017;DHT22;2527;50.892;16.706;2024-01-10T09:13:03;-2.80;99.90
5017;DHT22;2527;50.892;16.706;2024-01-10T09:15:29;-2.80;99.90
5017;DHT22;2527;50.892;16.706;2024-01-10T09:17:55;-2.80;99.90
5017;DHT22;2527;50.892;16.706;2024-01-10T09:20:21;-2.70;99.90
5017;DHT22;2527;50.892;16.706;2024-01-10T09:22:47;-2.60;99.90
5017;DHT22;2527;50.892;16.706;2024-01-10T09:25:14;-2.60;99.90
5017;DHT22;2527;50.892;16.706;2024-01-10T09:27:40;-2.50;99.90
5017;DHT22;2527;50.892;16.706;2024-01-10T09:30:09;-2.40;99.90
5017;DHT22;2527;50.892;16.706;2024-01-10T09:32:35;-2.40;99.90
5017;DHT22;2527;50.892;16.706;2024-01-10T09:35:02;-2.30;99.90
5017;DHT22;2527;50.892;16.706;2024-01-10T09:37:27;-2.30;99.90
5017;DHT22;2527;50.892;16.706;2024-01-10T09:39:53;-2.20;99.90
5017;DHT22;2527;50.892;16.706;2024-01-10T09:42:20;-1.90;99.90
5017;DHT22;2527;50.892;16.706;2024-01-10T09:44:53;-2.20;99.90
5017;DHT22;2527;50.892;16.706;2024-01-10T09:47:19;-2.10;99.90
5017;DHT22;2527;50.892;16.706;2024-01-10T09:49:45;-2.10;99.90
5017;DHT22;2527;50.892;16.706;2024-01-10T09:52:15;-2.00;99.90
5017;DHT22;2527;50.892;16.706;2024-01-10T09:54:42;-1.90;99.90
5017;DHT22;2527;50.892;16.706;2024-01-10T09:57:08;-1.90;99.90
5017;DHT22;2527;50.892;16.706;2024-01-10T09:59:35;-1.80;99.90
5017;DHT22;2527;50.892;16.706;2024-01-10T10:02:01;-1.80;99.90
5017;DHT22;2527;50.892;16.706;2024-01-10T10:04:29;-1.70;99.90
5017;DHT22;2527;50.892;16.706;2024-01-10T10:06:59;-1.70;99.90
5017;DHT22;2527;50.892;16.706;2024-01-10T10:09:26;-1.70;99.90
5017;DHT22;2527;50.892;16.706;2024-01-10T10:11:54;-1.60;99.90
5017;DHT22;2527;50.892;16.706;2024-01-10T10:14:23;-1.70;99.90
5017;DHT22;2527;50.892;16.706;2024-01-10T10:16:51;-1.60;99.90
5017;DHT22;2527;50.892;16.706;2024-01-10T10:19:26;-1.60;99.90
5017;DHT22;2527;50.892;16.706;2024-01-10T10:21:51;-1.60;99.90
5017;DHT22;2527;50.892;16.706;2024-01-10T10:24:17;-1.60;99.90
5017;DHT22;2527;50.892;16.706;2024-01-10T10:26:43;-1.50;99.90
5017;DHT22;2527;50.892;16.706;2024-01-10T10:29:09;-1.40;99.90
5017;DHT22;2527;50.892;16.706;2024-01-10T10:31:34;-1.60;99.90
5017;DHT22;2527;50.892;16.706;2024-01-10T10:34:01;-1.50;99.90
5017;DHT22;2527;50.892;16.706;2024-01-10T10:36:27;-1.50;99.90
5017;DHT22;2527;50.892;16.706;2024-01-10T10:38:53;-1.50;99.90
5017;DHT22;2527;50.892;16.706;2024-01-10T10:41:19;-1.50;99.90
5017;DHT22;2527;50.892;16.706;2024-01-10T10:43:45;-1.40;99.90
5017;DHT22;2527;50.892;16.706;2024-01-10T10:46:12;-1.40;99.90
5017;DHT22;2527;50.892;16.706;2024-01-10T10:48:37;-1.30;99.90
5017;DHT22;2527;50.892;16.706;2024-01-10T10:53:34;-1.40;99.90
5017;DHT22;2527;50.892;16.706;2024-01-10T10:56:03;-1.30;99.90
5017;DHT22;2527;50.892;16.706;2024-01-10T10:58:31;-1.30;99.90
5017;DHT22;2527;50.892;16.706;2024-01-10T11:00:58;-1.20;99.90
5017;DHT22;2527;50.892;16.706;2024-01-10T11:03:25;-1.20;99.90
5017;DHT22;2527;50.892;16.706;2024-01-10T11:05:53;-1.20;99.90
5017;DHT22;2527;50.892;16.706;2024-01-10T11:08:19;-1.10;99.90
5017;DHT22;2527;50.892;16.706;2024-01-10T11:10:45;-1.10;99.90
5017;DHT22;2527;50.892;16.706;2024-01-10T11:21:05;-1.00;99.90
5017;DHT22;2527;50.892;16.706;2024-01-10T11:23:42;-1.00;99.90
5017;DHT22;2527;50.892;16.706;2024-01-10T11:26:10;-1.00;99.90
5017;DHT22;2527;50.892;16.706;2024-01-10T11:28:36;-1.00;99.90
5017;DHT22;2527;50.892;16.706;2024-01-10T11:31:02;-1.00;99.90
5017;DHT22;2527;50.892;16.706;2024-01-10T11:33:32;-1.00;99.90
5017;DHT22;2527;50.892;16.706;2024-01-10T11:41:12;-0.90;99.90
5017;DHT22;2527;50.892;16.706;2024-01-10T11:43:38;-0.90;99.90
5017;DHT22;2527;50.892;16.706;2024-01-10T11:46:05;-0.90;99.90
5017;DHT22;2527;50.892;16.706;2024-01-10T11:48:40;-0.90;99.90
5017;DHT22;2527;50.892;16.706;2024-01-10T11:51:07;-0.90;99.90
5017;DHT22;2527;50.892;16.706;2024-01-10T11:53:42;-0.80;99.90
5017;DHT22;2527;50.892;16.706;2024-01-10T11:56:14;-0.80;99.90
5017;DHT22;2527;50.892;16.706;2024-01-10T11:59:02;-0.80;99.90
5017;DHT22;2527;50.892;16.706;2024-01-10T12:01:35;-0.80;99.90
5017;DHT22;2527;50.892;16.706;2024-01-10T12:04:01;-0.80;99.90
5017;DHT22;2527;50.892;16.706;2024-01-10T12:06:27;-0.70;99.90
5017;DHT22;2527;50.892;16.706;2024-01-10T12:08:53;-0.70;99.90
5017;DHT22;2527;50.892;16.706;2024-01-10T12:11:19;-0.70;99.90
5017;DHT22;2527;50.892;16.706;2024-01-10T12:13:46;-0.70;99.90
5017;DHT22;2527;50.892;16.706;2024-01-10T12:16:12;-0.60;99.90
5017;DHT22;2527;50.892;16.706;2024-01-10T12:18:38;-0.60;99.90
5017;DHT22;2527;50.892;16.706;2024-01-10T12:21:04;-0.60;99.90
5017;DHT22;2527;50.892;16.706;2024-01-10T12:23:30;-0.60;99.90
5017;DHT22;2527;50.892;16.706;2024-01-10T12:25:57;-0.60;99.90
5017;DHT22;2527;50.892;16.706;2024-01-10T12:28:23;-0.60;99.90
5017;DHT22;2527;50.892;16.706;2024-01-10T12:30:48;-0.50;99.90
5017;DHT22;2527;50.892;16.706;2024-01-10T12:33:14;-0.50;99.90
5017;DHT22;2527;50.892;16.706;2024-01-10T12:35:40;-0.50;99.90
5017;DHT22;2527;50.892;16.706;2024-01-10T12:38:10;-0.50;99.90
5017;DHT22;2527;50.892;16.706;2024-01-10T12:40:36;-0.50;99.90
5017;DHT22;2527;50.892;16.706;2024-01-10T12:43:03;-0.50;99.90
5017;DHT22;2527;50.892;16.706;2024-01-10T12:45:28;-0.50;99.90
5017;DHT22;2527;50.892;16.706;2024-01-10T12:47:54;-0.40;99.90
5017;DHT22;2527;50.892;16.706;2024-01-10T12:50:20;-0.40;99.90
5017;DHT22;2527;50.892;16.706;2024-01-10T12:52:46;-0.40;99.90
5017;DHT22;2527;50.892;16.706;2024-01-10T12:55:12;-0.40;99.90
5017;DHT22;2527;50.892;16.706;2024-01-10T12:57:38;-0.40;99.90
5017;DHT22;2527;50.892;16.706;2024-01-10T13:00:05;-0.40;99.90
5017;DHT22;2527;50.892;16.706;2024-01-10T13:02:34;-0.40;99.90
5017;DHT22;2527;50.892;16.706;2024-01-10T13:05:05;-0.40;99.90
5017;DHT22;2527;50.892;16.706;2024-01-10T13:07:36;-0.30;99.90
5017;DHT22;2527;50.892;16.706;2024-01-10T13:10:02;-0.30;99.90
5017;DHT22;2527;50.892;16.706;2024-01-10T13:12:28;-0.30;99.90
5017;DHT22;2527;50.892;16.706;2024-01-10T13:14:59;-0.30;99.90
5017;DHT22;2527;50.892;16.706;2024-01-10T13:17:25;-0.30;99.90
5017;DHT22;2527;50.892;16.706;2024-01-10T13:19:51;-0.30;99.90
5017;DHT22;2527;50.892;16.706;2024-01-10T13:22:16;-0.30;99.90
5017;DHT22;2527;50.892;16.706;2024-01-10T13:24:44;-0.20;99.90
5017;DHT22;2527;50.892;16.706;2024-01-10T13:27:10;-0.30;99.90
5017;DHT22;2527;50.892;16.706;2024-01-10T13:29:36;-0.20;99.90
5017;DHT22;2527;50.892;16.706;2024-01-10T13:32:04;-0.20;99.90
5017;DHT22;2527;50.892;16.706;2024-01-10T13:34:30;-0.20;99.90
5017;DHT22;2527;50.892;16.706;2024-01-10T13:36:57;-0.10;99.90
5017;DHT22;2527;50.892;16.706;2024-01-10T13:39:23;-0.20;99.90
5017;DHT22;2527;50.892;16.706;2024-01-10T13:41:49;-0.20;99.90
5017;DHT22;2527;50.892;16.706;2024-01-10T13:44:14;-0.20;99.90
5017;DHT22;2527;50.892;16.706;2024-01-10T13:46:40;-0.20;99.90
5017;DHT22;2527;50.892;16.706;2024-01-10T13:49:06;-0.20;99.90
5017;DHT22;2527;50.892;16.706;2024-01-10T13:51:32;-0.20;99.90
5017;DHT22;2527;50.892;16.706;2024-01-10T13:53:58;-0.20;99.90
5017;DHT22;2527;50.892;16.706;2024-01-10T13:56:24;-0.10;99.90
5017;DHT22;2527;50.892;16.706;2024-01-10T13:58:49;-0.10;99.90
5017;DHT22;2527;50.892;16.706;2024-01-10T14:01:16;-0.10;99.90
5017;DHT22;2527;50.892;16.706;2024-01-10T14:03:42;-0.10;99.90
5017;DHT22;2527;50.892;16.706;2024-01-10T14:06:08;-0.10;99.90
5017;DHT22;2527;50.892;16.706;2024-01-10T14:08:34;-0.10;99.90
5017;DHT22;2527;50.892;16.706;2024-01-10T14:11:03;-0.10;99.90
5017;DHT22;2527;50.892;16.706;2024-01-10T14:13:29;-0.10;99.90
5017;DHT22;2527;50.892;16.706;2024-01-10T14:15:56;-0.10;99.90
5017;DHT22;2527;50.892;16.706;2024-01-10T14:18:23;-0.10;99.90
5017;DHT22;2527;50.892;16.706;2024-01-10T14:20:49;-0.10;99.90
5017;DHT22;2527;50.892;16.706;2024-01-10T14:23:14;-0.10;99.90
5017;DHT22;2527;50.892;16.706;2024-01-10T14:25:43;-0.10;99.90
5017;DHT22;2527;50.892;16.706;2024-01-10T14:28:11;-0.10;99.90
5017;DHT22;2527;50.892;16.706;2024-01-10T14:30:36;-0.10;99.90
5017;DHT22;2527;50.892;16.706;2024-01-10T14:33:03;-0.10;99.90
5017;DHT22;2527;50.892;16.706;2024-01-10T14:35:32;-0.10;99.90
5017;DHT22;2527;50.892;16.706;2024-01-10T14:38:18;-0.10;99.90
5017;DHT22;2527;50.892;16.706;2024-01-10T14:40:45;-0.20;99.90
5017;DHT22;2527;50.892;16.706;2024-01-10T14:43:11;-0.20;99.90
5017;DHT22;2527;50.892;16.706;2024-01-10T14:45:38;-0.10;99.90
5017;DHT22;2527;50.892;16.706;2024-01-10T14:48:04;-0.20;99.90
5017;DHT22;2527;50.892;16.706;2024-01-10T14:50:30;-0.30;99.90
5017;DHT22;2527;50.892;16.706;2024-01-10T14:52:55;-0.30;99.90
5017;DHT22;2527;50.892;16.706;2024-01-10T14:55:23;-0.30;99.90
5017;DHT22;2527;50.892;16.706;2024-01-10T14:57:49;-0.40;99.90
5017;DHT22;2527;50.892;16.706;2024-01-10T15:00:15;-0.40;99.90
5017;DHT22;2527;50.892;16.706;2024-01-10T15:02:41;-0.40;99.90
5017;DHT22;2527;50.892;16.706;2024-01-10T15:05:07;-0.50;99.90
5017;DHT22;2527;50.892;16.706;2024-01-10T15:07:33;-0.50;99.90
5017;DHT22;2527;50.892;16.706;2024-01-10T15:09:59;-0.50;99.90
5017;DHT22;2527;50.892;16.706;2024-01-10T15:12:24;-0.60;99.90
5017;DHT22;2527;50.892;16.706;2024-01-10T15:14:51;-0.60;99.90
5017;DHT22;2527;50.892;16.706;2024-01-10T15:17:16;-0.60;99.90
5017;DHT22;2527;50.892;16.706;2024-01-10T15:19:42;-0.60;99.90
5017;DHT22;2527;50.892;16.706;2024-01-10T15:22:09;1.50;99.90
5017;DHT22;2527;50.892;16.706;2024-01-10T15:24:35;-0.70;99.90
5017;DHT22;2527;50.892;16.706;2024-01-10T15:27:01;-0.80;99.90
5017;DHT22;2527;50.892;16.706;2024-01-10T15:29:31;-0.80;99.90
5017;DHT22;2527;50.892;16.706;2024-01-10T15:31:57;-0.80;99.90
5017;DHT22;2527;50.892;16.706;2024-01-10T15:34:23;-0.80;99.90
5017;DHT22;2527;50.892;16.706;2024-01-10T15:36:51;-0.90;99.90
5017;DHT22;2527;50.892;16.706;2024-01-10T15:39:17;-0.90;99.90
5017;DHT22;2527;50.892;16.706;2024-01-10T15:41:46;-0.90;99.90
5017;DHT22;2527;50.892;16.706;2024-01-10T15:44:11;-1.00;99.90
5017;DHT22;2527;50.892;16.706;2024-01-10T15:46:37;-1.00;99.90
5017;DHT22;2527;50.892;16.706;2024-01-10T15:49:03;-1.00;99.90
5017;DHT22;2527;50.892;16.706;2024-01-10T15:51:29;-1.00;99.90
5017;DHT22;2527;50.892;16.706;2024-01-10T15:53:56;-1.10;99.90
5017;DHT22;2527;50.892;16.706;2024-01-10T15:56:23;-1.10;99.90